createdAt,value
2023-02-28T08:01:40.154Z,16.42
2023-02-28T08:04:08.105Z,17.05
2023-02-28T08:06:35.510Z,21.13
2023-02-28T08:09:03.587Z,21.35
2023-02-28T08:11:31.768Z,17.48
2023-02-28T08:13:59.560Z,18.08
2023-02-28T08:16:26.908Z,18.33
2023-02-28T08:18:54.935Z,13.15
2023-02-28T08:21:22.804Z,15.98
2023-02-28T08:23:51.802Z,14.95
2023-02-28T08:26:20.184Z,18.58
2023-02-28T08:28:47.895Z,15.00
2023-02-28T08:31:17.192Z,14.52
2023-02-28T08:33:45.765Z,17.67
2023-02-28T08:36:13.420Z,14.75
2023-02-28T08:38:41.315Z,13.90
2023-02-28T08:41:12.051Z,14.93
2023-02-28T08:43:41.027Z,16.40
2023-02-28T08:46:12.172Z,12.40
2023-02-28T08:48:40.642Z,12.87
2023-02-28T08:51:11.258Z,10.32
2023-02-28T08:53:40.641Z,9.15
2023-02-28T08:56:18.447Z,14.43
2023-02-28T08:58:47.287Z,15.00
2023-02-28T09:01:18.254Z,11.05
2023-02-28T09:03:47.903Z,15.13
2023-02-28T09:06:17.010Z,16.60
2023-02-28T09:08:46.169Z,15.45
2023-02-28T09:11:14.173Z,18.13
2023-02-28T09:13:41.968Z,18.60
2023-02-28T09:16:13.737Z,22.33
2023-02-28T09:18:41.852Z,18.25
2023-02-28T09:21:15.295Z,19.25
2023-02-28T09:23:48.353Z,13.27
2023-02-28T09:26:21.173Z,18.63
2023-02-28T09:28:49.482Z,17.95
2023-02-28T09:31:22.246Z,20.38
2023-02-28T09:33:52.540Z,17.45
2023-02-28T09:36:23.248Z,17.98
2023-02-28T09:38:52.418Z,11.77
2023-02-28T09:41:40.989Z,20.45
2023-02-28T09:44:16.773Z,14.57
2023-02-28T09:46:48.290Z,24.23
2023-02-28T09:49:20.726Z,19.05
2023-02-28T09:52:10.182Z,19.83
2023-02-28T09:54:38.685Z,17.13
2023-02-28T09:57:07.958Z,16.88
2023-02-28T09:59:48.723Z,16.60
2023-02-28T10:02:59.452Z,16.88
2023-02-28T10:06:06.827Z,16.95
2023-02-28T10:08:33.986Z,10.93
2023-02-28T10:11:08.776Z,17.63
2023-02-28T10:14:02.512Z,15.45
2023-02-28T10:16:38.170Z,12.85
2023-02-28T10:19:22.684Z,18.48
2023-02-28T10:22:21.777Z,19.05
2023-02-28T10:24:54.494Z,11.43
2023-02-28T10:27:29.840Z,16.58
2023-02-28T10:30:00.282Z,12.45
2023-02-28T10:32:30.982Z,46.65
2023-02-28T10:35:20.113Z,26.58
2023-02-28T10:38:02.590Z,16.50
2023-02-28T10:40:38.918Z,19.15
2023-02-28T10:43:27.092Z,40.10
2023-02-28T10:46:03.961Z,24.23
2023-02-28T10:48:35.632Z,18.85
2023-02-28T10:51:06.210Z,15.82
2023-02-28T10:53:57.316Z,19.88
2023-02-28T10:56:26.840Z,13.63
2023-02-28T10:59:24.031Z,20.63
2023-02-28T11:01:53.951Z,22.70
2023-02-28T11:04:36.838Z,21.73
2023-02-28T11:09:40.113Z,23.55
2023-02-28T11:12:19.027Z,25.08
2023-02-28T11:14:53.254Z,18.85
2023-02-28T11:17:27.196Z,11.68
2023-02-28T11:20:04.319Z,19.90
2023-02-28T11:22:40.007Z,15.73
2023-02-28T11:25:20.395Z,16.05
2023-02-28T11:27:52.138Z,20.63
2023-02-28T11:30:41.600Z,16.27
2023-02-28T11:33:30.619Z,18.75
2023-02-28T11:36:27.885Z,20.92
2023-02-28T11:38:58.100Z,16.13
2023-02-28T11:41:40.265Z,18.92
2023-02-28T11:44:25.044Z,27.95
2023-02-28T11:46:59.009Z,16.00
2023-02-28T11:49:55.555Z,25.23
2023-02-28T11:52:45.065Z,24.40
2023-02-28T11:55:36.534Z,20.30
2023-02-28T11:58:18.522Z,18.90
2023-02-28T12:01:37.867Z,19.30
2023-02-28T12:04:20.907Z,22.27
2023-02-28T12:09:47.982Z,15.20
2023-02-28T12:12:30.434Z,15.70
2023-02-28T12:15:45.121Z,76.75
2023-02-28T12:18:24.516Z,14.60
2023-02-28T12:21:23.794Z,14.32
2023-02-28T12:24:02.760Z,19.17
2023-02-28T12:26:30.205Z,501.58
2023-02-28T12:29:25.189Z,19.45
2023-02-28T12:32:14.688Z,11.00
2023-02-28T12:34:52.212Z,21.77
2023-02-28T12:37:29.416Z,15.13
2023-02-28T12:40:06.796Z,21.02
2023-02-28T12:42:40.400Z,14.68
2023-02-28T12:45:11.347Z,15.35
2023-02-28T12:47:43.401Z,18.80
2023-02-28T12:50:12.691Z,15.05
2023-02-28T12:53:01.888Z,16.08
2023-02-28T12:55:47.095Z,14.40
2023-02-28T12:58:33.581Z,20.88
2023-02-28T13:01:15.992Z,20.40
2023-02-28T13:03:53.670Z,21.88
2023-02-28T13:06:43.129Z,20.23
2023-02-28T13:09:19.066Z,53.05
2023-02-28T13:11:50.468Z,16.35
2023-02-28T13:14:24.173Z,20.38
2023-02-28T13:16:59.620Z,19.90
2023-02-28T13:19:33.422Z,15.85
2023-02-28T13:22:01.963Z,14.80
2023-02-28T13:24:35.182Z,13.95
2023-02-28T13:27:02.526Z,13.18
2023-02-28T13:29:36.033Z,17.90
2023-02-28T13:32:09.783Z,15.05
2023-02-28T13:34:52.243Z,14.65
2023-02-28T13:37:22.373Z,16.65
2023-02-28T13:39:54.476Z,29.27
2023-02-28T13:42:50.934Z,13.32
2023-02-28T13:45:25.753Z,20.92
2023-02-28T13:48:04.482Z,14.57
2023-02-28T13:50:38.868Z,16.70
2023-02-28T13:53:15.475Z,16.10
2023-02-28T13:55:52.375Z,18.52
2023-02-28T13:58:40.143Z,50.92
2023-02-28T14:01:39.458Z,19.00
2023-02-28T14:04:51.342Z,44.33
2023-02-28T14:07:24.334Z,19.75
2023-02-28T14:10:06.590Z,14.68
2023-02-28T14:12:55.854Z,22.63
2023-02-28T14:15:40.851Z,24.35
2023-02-28T14:18:27.039Z,22.58
2023-02-28T14:21:09.871Z,18.88
2023-02-28T14:23:37.477Z,16.75
2023-02-28T14:26:36.007Z,19.38
2023-02-28T14:29:26.444Z,19.95
2023-02-28T14:32:12.332Z,23.23
2023-02-28T14:35:11.436Z,22.90
2023-02-28T14:37:40.862Z,26.10
2023-02-28T14:40:39.261Z,42.40
2023-02-28T14:43:19.527Z,38.95
2023-02-28T14:45:58.250Z,23.20
2023-02-28T14:48:27.431Z,19.70
2023-02-28T14:51:00.166Z,25.02
2023-02-28T14:55:57.472Z,30.48
2023-02-28T14:58:24.986Z,22.30
2023-02-28T15:00:55.826Z,38.38
2023-02-28T15:03:31.920Z,30.88
2023-02-28T15:06:03.485Z,29.13
2023-02-28T15:08:36.123Z,41.58
2023-02-28T15:11:08.903Z,24.88
2023-02-28T15:13:48.824Z,22.77
2023-02-28T15:16:39.787Z,19.40
2023-02-28T15:19:14.571Z,26.02
2023-02-28T15:21:47.162Z,28.98
2023-02-28T15:24:32.842Z,29.75
2023-02-28T15:27:08.639Z,31.40
2023-02-28T15:29:46.949Z,24.38
2023-02-28T15:32:40.779Z,32.70
2023-02-28T15:35:31.515Z,26.17
2023-02-28T15:38:04.111Z,46.15
2023-02-28T15:40:42.011Z,27.10
2023-02-28T15:43:25.750Z,28.45
2023-02-28T15:46:05.184Z,27.83
2023-02-28T15:48:36.982Z,26.92
2023-02-28T15:51:18.924Z,34.78
2023-02-28T15:53:52.164Z,31.77
2023-02-28T15:56:34.648Z,44.60
2023-02-28T15:59:06.408Z,56.78
2023-02-28T16:01:38.540Z,57.67
2023-02-28T16:04:18.122Z,102.75
2023-02-28T16:07:00.825Z,83.93
2023-02-28T16:09:32.580Z,107.15
2023-02-28T16:12:04.213Z,251.18
2023-02-28T16:14:32.545Z,147.38
2023-02-28T16:17:27.987Z,157.73
2023-02-28T16:19:56.496Z,57.58
2023-02-28T16:22:23.987Z,75.45
2023-02-28T16:24:52.359Z,78.63
2023-02-28T16:27:49.755Z,79.20
2023-02-28T16:30:29.200Z,50.15
2023-02-28T16:32:57.090Z,99.25
2023-02-28T16:35:25.122Z,63.08
2023-02-28T16:37:53.008Z,81.70
2023-02-28T16:40:26.504Z,94.57
2023-02-28T16:43:00.549Z,86.78
2023-02-28T16:45:30.216Z,116.43
2023-02-28T16:47:58.767Z,94.30
2023-02-28T16:50:30.309Z,93.93
2023-02-28T16:52:58.010Z,93.97
2023-02-28T16:55:27.143Z,76.88
2023-02-28T16:57:57.844Z,178.40
2023-02-28T17:00:26.258Z,119.25
2023-02-28T17:02:53.901Z,97.90
2023-02-28T17:05:22.101Z,91.93
2023-02-28T17:07:49.892Z,105.70
2023-02-28T17:10:21.218Z,101.10
2023-02-28T17:12:49.042Z,81.70
2023-02-28T17:15:18.702Z,77.32
2023-02-28T17:17:47.129Z,70.13
2023-02-28T17:20:17.499Z,78.53
2023-02-28T17:22:44.784Z,70.63
2023-02-28T17:25:12.610Z,57.10
2023-02-28T17:27:39.916Z,57.55
2023-02-28T17:30:25.428Z,60.70
2023-02-28T17:32:52.742Z,82.20
2023-02-28T17:35:20.627Z,69.90
2023-02-28T17:37:49.977Z,68.63
2023-02-28T17:40:21.689Z,70.40
2023-02-28T17:42:49.350Z,69.03
2023-02-28T17:45:17.327Z,66.35
2023-02-28T17:47:48.401Z,70.70
2023-02-28T17:50:18.954Z,65.40
2023-02-28T17:52:47.316Z,59.35
2023-02-28T17:55:15.417Z,58.03
2023-02-28T17:57:43.124Z,64.15
2023-02-28T18:00:14.625Z,77.38
2023-02-28T18:02:43.435Z,92.65
2023-02-28T18:05:12.369Z,101.80
2023-02-28T18:07:40.802Z,109.60
2023-02-28T18:10:28.413Z,105.43
2023-02-28T18:12:56.126Z,93.18
2023-02-28T18:15:23.883Z,93.03
2023-02-28T18:17:51.342Z,97.05
2023-02-28T18:20:19.785Z,106.15
2023-02-28T18:22:47.536Z,101.20
2023-02-28T18:25:17.049Z,97.75
2023-02-28T18:27:58.238Z,110.97
2023-02-28T18:30:32.536Z,213.25
2023-02-28T18:33:01.165Z,501.67
2023-02-28T18:35:35.410Z,190.75
2023-02-28T18:38:13.354Z,407.02
2023-02-28T18:40:42.423Z,449.58
2023-02-28T18:43:10.427Z,311.70
2023-02-28T18:45:39.447Z,209.55
2023-02-28T18:48:06.988Z,266.48
2023-02-28T18:50:37.005Z,255.10
2023-02-28T18:53:04.304Z,251.95
2023-02-28T18:55:32.670Z,242.68
2023-02-28T18:58:00.312Z,183.35
2023-02-28T19:00:28.234Z,166.85
2023-02-28T19:02:55.618Z,161.38
2023-02-28T19:05:23.945Z,153.10
2023-02-28T19:07:51.183Z,154.85
2023-02-28T19:10:19.266Z,108.88
2023-02-28T19:12:47.113Z,140.63
2023-02-28T19:15:15.031Z,242.45
2023-02-28T19:17:42.823Z,179.98
2023-02-28T19:20:11.072Z,155.32
2023-02-28T19:22:39.581Z,159.13
2023-02-28T19:25:08.217Z,182.30
2023-02-28T19:27:35.728Z,173.02
2023-02-28T19:30:04.778Z,154.70
2023-02-28T19:32:32.376Z,133.02
2023-02-28T19:34:59.949Z,107.57
2023-02-28T19:37:27.320Z,115.57
2023-02-28T19:39:57.050Z,121.55
2023-02-28T19:42:24.819Z,119.00
2023-02-28T19:44:52.525Z,124.10
2023-02-28T19:47:19.820Z,121.75
2023-02-28T19:49:47.529Z,106.20
2023-02-28T19:52:15.614Z,108.80
2023-02-28T19:54:43.905Z,114.35
2023-02-28T19:57:11.208Z,115.55
2023-02-28T19:59:40.239Z,109.72
2023-02-28T20:02:15.322Z,122.43
2023-02-28T20:04:43.544Z,121.80
2023-02-28T20:07:11.126Z,117.15
2023-02-28T20:09:38.569Z,122.07
2023-02-28T20:12:09.323Z,103.53
2023-02-28T20:14:42.649Z,116.88
2023-02-28T20:17:10.056Z,120.85
2023-02-28T20:19:38.247Z,142.93
2023-02-28T20:22:06.043Z,135.07
2023-02-28T20:24:34.227Z,139.48
2023-02-28T20:27:01.788Z,139.68
2023-02-28T20:29:30.044Z,148.75
2023-02-28T20:31:58.002Z,160.55
2023-02-28T20:34:25.545Z,157.55
2023-02-28T20:36:53.448Z,169.80
2023-02-28T20:39:21.521Z,172.63
2023-02-28T20:41:48.852Z,180.93
2023-02-28T20:44:16.410Z,181.57
2023-02-28T20:46:45.002Z,159.48
2023-02-28T20:49:13.134Z,161.23
2023-02-28T20:51:42.354Z,174.02
2023-02-28T20:54:11.832Z,1475.07
2023-02-28T20:56:39.260Z,302.05
2023-02-28T20:59:06.873Z,299.13
2023-02-28T21:01:34.303Z,581.95
2023-02-28T21:04:06.047Z,506.83
2023-02-28T21:06:36.850Z,342.27
2023-02-28T21:09:07.345Z,399.88
2023-02-28T21:11:36.900Z,317.10
2023-02-28T21:14:11.311Z,332.73
2023-02-28T21:16:39.185Z,374.75
2023-02-28T21:19:07.145Z,269.35
2023-02-28T21:21:44.692Z,327.33
2023-02-28T21:24:14.353Z,571.67
2023-02-28T21:26:44.583Z,395.35
2023-02-28T21:29:13.435Z,266.33
2023-02-28T21:31:41.329Z,263.92
2023-02-28T21:34:11.059Z,262.75
2023-02-28T21:36:40.827Z,284.85
2023-02-28T21:39:14.393Z,287.83
2023-02-28T21:41:42.102Z,271.65
2023-02-28T21:44:18.471Z,294.20
2023-02-28T21:46:48.222Z,359.05
2023-02-28T21:49:16.360Z,324.83
2023-02-28T21:51:43.797Z,331.30
2023-02-28T21:54:11.871Z,301.50
2023-02-28T21:56:39.681Z,314.45
2023-02-28T21:59:09.840Z,353.40
2023-02-28T22:01:44.297Z,322.63
2023-02-28T22:04:24.144Z,392.77
2023-02-28T22:06:57.186Z,387.95
2023-02-28T22:09:25.821Z,405.40
2023-02-28T22:11:53.152Z,375.40
2023-02-28T22:14:21.055Z,397.30
2023-02-28T22:16:53.261Z,372.02
2023-02-28T22:19:22.709Z,376.75
2023-02-28T22:21:51.966Z,383.23
2023-02-28T22:24:21.990Z,364.52
2023-02-28T22:26:50.643Z,382.33
2023-02-28T22:29:19.337Z,375.27
2023-02-28T22:31:46.755Z,349.63
2023-02-28T22:34:14.460Z,363.15
2023-02-28T22:36:42.833Z,360.75
2023-02-28T22:39:11.490Z,362.58
2023-02-28T22:41:38.960Z,348.02
2023-02-28T22:44:07.911Z,348.98
2023-02-28T22:46:36.505Z,381.27
2023-02-28T22:49:05.569Z,345.25
2023-02-28T22:51:33.905Z,339.77
2023-02-28T22:54:02.051Z,337.50
2023-02-28T22:56:31.019Z,316.13
2023-02-28T22:59:00.361Z,322.45
2023-02-28T23:01:31.520Z,333.70
2023-02-28T23:04:00.016Z,333.92
2023-02-28T23:06:31.172Z,323.13
2023-02-28T23:09:01.495Z,332.70
2023-02-28T23:11:32.670Z,350.52
2023-02-28T23:14:00.845Z,359.17
2023-02-28T23:16:37.646Z,515.88
2023-02-28T23:19:14.433Z,355.05
2023-02-28T23:21:42.719Z,329.67
2023-02-28T23:24:11.837Z,340.98
2023-02-28T23:26:43.830Z,332.27
2023-02-28T23:29:13.018Z,335.60
2023-02-28T23:31:40.989Z,331.77
2023-02-28T23:34:09.567Z,326.77
2023-02-28T23:36:39.368Z,442.33
2023-02-28T23:39:06.576Z,645.88
2023-02-28T23:41:34.530Z,327.45
2023-02-28T23:44:01.832Z,359.92
2023-02-28T23:46:29.810Z,369.25
2023-02-28T23:48:59.114Z,328.13
2023-02-28T23:51:26.790Z,300.27
2023-02-28T23:53:54.213Z,305.80
2023-02-28T23:56:23.614Z,315.55
2023-02-28T23:58:51.421Z,294.10
